createdAt,value
2024-03-05T04:29:34.801Z,100.00
2024-03-05T04:32:42.062Z,100.00
2024-03-05T04:35:44.740Z,100.00
2024-03-05T04:38:47.353Z,100.00
2024-03-05T04:41:49.915Z,100.00
2024-03-05T04:44:54.384Z,100.00
2024-03-05T04:47:58.156Z,100.00
2024-03-05T04:51:01.535Z,100.00
2024-03-05T04:54:04.236Z,100.00
2024-03-05T04:57:07.969Z,100.00
2024-03-05T05:00:25.308Z,100.00
2024-03-05T05:03:28.231Z,100.00
2024-03-05T05:06:30.717Z,100.00
2024-03-05T05:09:33.243Z,100.00
2024-03-05T05:12:36.612Z,100.00
2024-03-05T05:15:39.197Z,100.00
2024-03-05T05:18:41.806Z,100.00
2024-03-05T05:21:48.278Z,100.00
2024-03-05T05:24:51.225Z,100.00
2024-03-05T05:27:53.900Z,100.00
2024-03-05T05:30:56.422Z,100.00
2024-03-05T05:33:59.302Z,100.00
2024-03-05T05:37:02.080Z,100.00
2024-03-05T05:40:05.321Z,100.00
2024-03-05T05:43:09.319Z,100.00
2024-03-05T05:46:23.415Z,100.00
2024-03-05T05:49:26.055Z,100.00
2024-03-05T05:52:28.608Z,100.00
2024-03-05T05:55:31.440Z,100.00
2024-03-05T05:58:37.437Z,100.00
2024-03-05T06:01:40.099Z,100.00
2024-03-05T06:04:43.074Z,100.00
2024-03-05T06:07:45.937Z,100.00
2024-03-05T06:10:48.496Z,100.00
2024-03-05T06:13:52.178Z,100.00
2024-03-05T06:16:54.774Z,100.00
2024-03-05T06:20:00.026Z,100.00
2024-03-05T06:23:02.786Z,100.00
2024-03-05T06:26:05.449Z,100.00
2024-03-05T06:29:10.310Z,100.00
2024-03-05T06:32:12.983Z,100.00
2024-03-05T06:35:16.788Z,100.00
2024-03-05T06:38:19.443Z,100.00
2024-03-05T06:41:26.344Z,100.00
2024-03-05T06:44:37.408Z,100.00
2024-03-05T06:47:41.139Z,100.00
2024-03-05T06:50:50.070Z,100.00
2024-03-05T06:54:20.114Z,100.00
2024-03-05T06:57:24.366Z,100.00
2024-03-05T07:00:28.155Z,100.00
2024-03-05T07:03:30.669Z,100.00
2024-03-05T07:06:33.631Z,100.00
2024-03-05T07:09:36.371Z,100.00
2024-03-05T07:12:38.877Z,100.00
2024-03-05T07:15:41.917Z,90.02
2024-03-05T07:18:45.372Z,73.98
2024-03-05T07:21:48.847Z,71.38
2024-03-05T07:24:53.472Z,58.49
2024-03-05T07:27:56.752Z,52.49
2024-03-05T07:31:00.773Z,50.44
2024-03-05T07:34:04.134Z,48.37
2024-03-05T07:37:09.562Z,47.81
2024-03-05T07:40:21.797Z,45.18
2024-03-05T07:43:25.017Z,44.70
2024-03-05T07:46:27.698Z,42.57
2024-03-05T07:49:34.675Z,41.84
2024-03-05T07:52:38.251Z,41.47
2024-03-05T07:55:46.362Z,41.53
2024-03-05T07:58:50.033Z,40.05
2024-03-05T08:01:53.410Z,39.03
2024-03-05T08:04:56.203Z,38.98
2024-03-05T08:08:00.299Z,39.07
2024-03-05T08:11:07.081Z,39.10
2024-03-05T08:14:18.663Z,36.93
2024-03-05T08:17:21.400Z,38.10
2024-03-05T08:20:28.908Z,38.56
2024-03-05T08:23:34.598Z,37.58
2024-03-05T08:26:37.510Z,35.67
2024-03-05T08:29:41.025Z,37.42
2024-03-05T08:32:44.995Z,34.23
2024-03-05T08:35:47.612Z,33.90
2024-03-05T08:38:50.232Z,33.58
2024-03-05T08:41:52.946Z,35.46
2024-03-05T08:45:02.115Z,36.81
2024-03-05T08:48:07.147Z,34.68
2024-03-05T08:51:09.727Z,33.40
2024-03-05T08:54:16.416Z,35.31
2024-03-05T08:57:25.003Z,33.87
2024-03-05T09:00:37.925Z,34.16
2024-03-05T09:03:45.803Z,34.64
2024-03-05T09:06:49.633Z,35.13
2024-03-05T09:09:59.137Z,36.32
2024-03-05T09:13:01.686Z,34.70
2024-03-05T09:16:04.701Z,34.33
2024-03-05T09:19:07.764Z,35.35
2024-03-05T09:22:10.729Z,34.44
2024-03-05T09:25:15.315Z,33.55
2024-03-05T09:28:21.504Z,32.47
2024-03-05T09:31:26.329Z,30.78
2024-03-05T09:34:29.198Z,30.70
2024-03-05T09:37:32.385Z,31.98
2024-03-05T09:40:36.484Z,30.90
2024-03-05T09:43:43.279Z,28.94
2024-03-05T09:46:47.522Z,30.60
2024-03-05T09:49:54.149Z,29.58
2024-03-05T09:53:00.774Z,29.71
2024-03-05T09:56:18.181Z,30.03
2024-03-05T09:59:37.737Z,30.81
2024-03-05T10:02:52.742Z,30.04
2024-03-05T10:05:56.491Z,30.24
2024-03-05T10:08:59.641Z,28.69
2024-03-05T10:12:05.938Z,29.22
2024-03-05T10:15:12.648Z,28.59
2024-03-05T10:18:30.761Z,29.53
2024-03-05T10:21:35.036Z,28.48
2024-03-05T10:24:38.462Z,35.38
2024-03-05T10:27:46.358Z,35.73
2024-03-05T10:30:59.831Z,37.30
2024-03-05T10:34:05.237Z,37.38
2024-03-05T10:37:08.702Z,39.28
2024-03-05T10:40:16.497Z,38.11
2024-03-05T10:43:23.424Z,39.99
2024-03-05T10:46:26.931Z,37.35
2024-03-05T10:49:37.247Z,40.33
2024-03-05T10:52:42.116Z,42.50
2024-03-05T10:56:01.468Z,43.44
2024-03-05T10:59:16.914Z,41.93
2024-03-05T11:02:28.903Z,43.24
2024-03-05T11:05:41.424Z,42.38
2024-03-05T11:08:45.106Z,44.61
2024-03-05T11:11:53.064Z,42.86
2024-03-05T11:14:56.302Z,45.07
2024-03-05T11:17:59.334Z,46.64
2024-03-05T11:21:10.322Z,49.21
2024-03-05T11:24:13.295Z,51.46
2024-03-05T11:27:25.686Z,48.81
2024-03-05T11:30:32.337Z,52.32
2024-03-05T11:33:35.882Z,51.59
2024-03-05T11:36:38.388Z,54.62
2024-03-05T11:39:44.451Z,56.74
2024-03-05T11:42:50.562Z,60.06
2024-03-05T11:45:53.641Z,61.31
2024-03-05T11:49:02.480Z,72.29
2024-03-05T11:52:05.777Z,64.95
2024-03-05T11:55:10.817Z,62.86
2024-03-05T11:58:15.876Z,61.92
2024-03-05T12:01:18.487Z,60.40
2024-03-05T12:04:21.278Z,65.87
2024-03-05T12:07:23.990Z,65.02
2024-03-05T12:10:34.570Z,66.49
2024-03-05T12:13:37.831Z,63.34
2024-03-05T12:16:40.454Z,64.02
2024-03-05T12:19:43.393Z,65.75
2024-03-05T12:22:56.906Z,68.28
2024-03-05T12:26:00.191Z,63.91
2024-03-05T12:29:03.703Z,62.60
2024-03-05T12:32:09.049Z,61.43
2024-03-05T12:35:15.558Z,61.73
2024-03-05T12:38:18.273Z,63.13
2024-03-05T12:41:23.921Z,62.12
2024-03-05T12:44:26.801Z,58.84
2024-03-05T12:47:32.339Z,60.59
2024-03-05T12:50:38.069Z,58.07
2024-03-05T12:53:42.231Z,57.27
2024-03-05T12:56:46.425Z,58.38
2024-03-05T12:59:50.661Z,56.81
2024-03-05T13:02:53.942Z,58.72
2024-03-05T13:06:00.512Z,57.65
2024-03-05T13:09:06.957Z,57.31
2024-03-05T13:12:09.710Z,58.50
2024-03-05T13:15:12.327Z,60.63
2024-03-05T13:18:15.180Z,58.50
2024-03-05T13:21:17.830Z,59.61
2024-03-05T13:24:20.774Z,61.56
2024-03-05T13:27:25.128Z,59.07
2024-03-05T13:30:28.230Z,57.23
2024-03-05T13:33:38.907Z,59.05
2024-03-05T13:36:47.987Z,63.63
2024-03-05T13:39:50.559Z,64.88
2024-03-05T13:42:53.352Z,65.53
2024-03-05T13:45:58.570Z,67.89
2024-03-05T13:49:01.165Z,68.51
2024-03-05T13:52:04.177Z,73.64
2024-03-05T13:55:08.191Z,80.70
2024-03-05T13:58:15.578Z,84.42
2024-03-05T14:01:18.594Z,82.53
2024-03-05T14:04:23.767Z,88.94
2024-03-05T14:07:26.451Z,90.68
2024-03-05T14:10:30.672Z,91.17
2024-03-05T14:13:34.140Z,92.87
2024-03-05T14:16:39.737Z,89.41
2024-03-05T14:19:42.649Z,87.50
2024-03-05T14:22:47.382Z,89.67
2024-03-05T14:25:50.437Z,87.59
2024-03-05T14:28:53.211Z,91.07
2024-03-05T14:31:56.338Z,86.93
2024-03-05T14:35:00.077Z,89.18
2024-03-05T14:38:03.001Z,86.52
2024-03-05T14:41:06.101Z,88.63
2024-03-05T14:44:12.203Z,85.03
2024-03-05T14:47:15.563Z,81.96
2024-03-05T14:50:18.832Z,80.09
2024-03-05T14:53:21.703Z,83.15
2024-03-05T14:56:28.183Z,80.17
2024-03-05T14:59:32.354Z,78.23
2024-03-05T15:02:35.246Z,74.01
2024-03-05T15:05:38.210Z,73.67
2024-03-05T15:08:40.749Z,75.90
2024-03-05T15:11:43.496Z,75.46
2024-03-05T15:14:47.902Z,80.03
2024-03-05T15:17:50.889Z,81.63
2024-03-05T15:20:53.787Z,77.15
2024-03-05T15:23:56.805Z,84.47
2024-03-05T15:27:05.285Z,82.73
2024-03-05T15:30:16.288Z,83.86
2024-03-05T15:33:19.215Z,90.36
2024-03-05T15:36:22.199Z,91.82
2024-03-05T15:39:27.775Z,93.08
2024-03-05T15:42:30.656Z,92.32
2024-03-05T15:45:33.655Z,90.84
2024-03-05T15:48:36.471Z,96.41
2024-03-05T15:51:39.280Z,92.71
2024-03-05T15:54:41.987Z,94.22
2024-03-05T15:58:04.345Z,97.27
2024-03-05T16:01:07.058Z,94.46
2024-03-05T16:04:30.100Z,95.47
2024-03-05T16:07:33.488Z,100.00
2024-03-05T16:10:44.815Z,98.39
2024-03-05T16:13:50.733Z,100.00
2024-03-05T16:16:53.374Z,100.00
2024-03-05T16:19:56.056Z,100.00
2024-03-05T16:22:59.976Z,100.00
2024-03-05T16:26:05.993Z,100.00
2024-03-05T16:29:08.878Z,100.00
2024-03-05T16:32:14.308Z,100.00
2024-03-05T16:35:19.876Z,100.00
2024-03-05T16:38:22.479Z,100.00
2024-03-05T16:41:25.347Z,100.00
2024-03-05T16:44:27.960Z,100.00
2024-03-05T16:47:32.120Z,100.00
2024-03-05T16:50:35.373Z,100.00
2024-03-05T16:53:38.984Z,100.00
2024-03-05T16:56:43.547Z,100.00
2024-03-05T16:59:46.306Z,100.00
2024-03-05T17:03:01.572Z,100.00
2024-03-05T17:06:09.073Z,100.00
2024-03-05T17:09:15.851Z,100.00
2024-03-05T17:12:19.572Z,100.00
2024-03-05T17:15:22.334Z,100.00
2024-03-05T17:18:25.598Z,100.00
2024-03-05T17:21:28.472Z,100.00
2024-03-05T17:24:31.117Z,100.00
2024-03-05T17:27:34.756Z,100.00
2024-03-05T17:30:39.666Z,100.00
2024-03-05T17:33:42.399Z,100.00
2024-03-05T17:36:45.025Z,100.00
2024-03-05T17:39:47.770Z,100.00
2024-03-05T17:42:50.371Z,100.00
2024-03-05T17:45:53.005Z,100.00
2024-03-05T17:48:55.557Z,100.00
2024-03-05T17:51:58.101Z,100.00
2024-03-05T17:55:08.913Z,100.00
2024-03-05T17:58:11.692Z,100.00
2024-03-05T18:01:15.603Z,100.00
2024-03-05T18:04:19.009Z,100.00
2024-03-05T18:07:21.465Z,100.00
2024-03-05T18:10:25.123Z,100.00
2024-03-05T18:13:27.927Z,100.00
2024-03-05T18:16:30.866Z,100.00
